createdAt,value
2018-09-19T00:00:10.865Z,74.00
2018-09-19T00:02:39.831Z,74.50
2018-09-19T00:05:08.928Z,75.30
2018-09-19T00:07:38.012Z,75.30
2018-09-19T00:10:07.255Z,74.90
2018-09-19T00:12:36.313Z,74.50
2018-09-19T00:15:05.496Z,74.80
2018-09-19T00:17:34.583Z,75.00
2018-09-19T00:20:03.593Z,74.60
2018-09-19T00:22:32.824Z,75.10
2018-09-19T00:25:01.890Z,75.00
2018-09-19T00:27:30.889Z,75.00
2018-09-19T00:29:59.968Z,75.10
2018-09-19T00:32:28.976Z,75.10
2018-09-19T00:34:58.084Z,74.90
2018-09-19T00:37:27.176Z,74.70
2018-09-19T00:39:56.243Z,75.90
2018-09-19T00:42:25.226Z,76.30
2018-09-19T00:44:54.346Z,76.40
2018-09-19T00:47:23.443Z,76.00
2018-09-19T00:49:52.641Z,75.70
2018-09-19T00:52:21.728Z,76.90
2018-09-19T00:54:50.725Z,77.70
2018-09-19T00:57:19.695Z,77.70
2018-09-19T00:59:48.837Z,76.70
2018-09-19T01:02:17.879Z,77.40
2018-09-19T01:04:46.807Z,78.70
2018-09-19T01:07:15.985Z,80.50
2018-09-19T01:09:44.974Z,81.00
2018-09-19T01:12:14.114Z,80.50
2018-09-19T01:14:43.280Z,80.90
2018-09-19T01:17:12.384Z,81.40
2018-09-19T01:19:41.478Z,82.50
2018-09-19T01:22:10.468Z,81.60
2018-09-19T01:24:39.455Z,82.40
2018-09-19T01:27:08.405Z,82.60
2018-09-19T01:29:37.516Z,82.70
2018-09-19T01:32:06.619Z,82.20
2018-09-19T01:34:35.701Z,82.20
2018-09-19T01:37:04.847Z,81.60
2018-09-19T01:39:33.923Z,80.40
2018-09-19T01:42:02.924Z,81.20
2018-09-19T01:44:32.003Z,82.00
2018-09-19T01:47:01.096Z,83.70
2018-09-19T01:49:30.216Z,85.00
2018-09-19T01:51:59.389Z,86.50
2018-09-19T01:54:28.381Z,85.20
2018-09-19T01:56:57.468Z,85.80
2018-09-19T01:59:26.534Z,85.70
2018-09-19T02:01:55.587Z,85.00
2018-09-19T02:04:24.624Z,84.90
2018-09-19T02:06:53.746Z,85.40
2018-09-19T02:09:22.744Z,85.80
2018-09-19T02:11:51.702Z,84.50
2018-09-19T02:14:20.843Z,85.60
2018-09-19T02:16:49.920Z,84.90
2018-09-19T02:19:18.904Z,85.50
2018-09-19T02:21:47.846Z,85.30
2018-09-19T02:24:17.006Z,85.80
2018-09-19T02:26:46.136Z,85.60
2018-09-19T02:29:15.199Z,85.30
2018-09-19T02:31:44.157Z,85.20
2018-09-19T02:34:13.172Z,85.80
2018-09-19T02:36:42.268Z,84.80
2018-09-19T02:39:11.537Z,85.90
2018-09-19T02:41:40.540Z,85.70
2018-09-19T02:44:09.559Z,84.60
2018-09-19T02:46:38.638Z,86.40
2018-09-19T02:49:07.847Z,85.40
2018-09-19T02:51:36.975Z,85.80
2018-09-19T02:54:06.023Z,84.70
2018-09-19T02:56:35.025Z,84.80
2018-09-19T02:59:04.132Z,86.30
2018-09-19T03:01:33.245Z,87.00
2018-09-19T03:04:03.491Z,88.90
2018-09-19T03:06:32.746Z,89.30
2018-09-19T03:09:01.657Z,89.30
2018-09-19T03:11:30.740Z,90.50
2018-09-19T03:13:59.795Z,90.70
2018-09-19T03:16:28.939Z,91.80
2018-09-19T03:18:58.016Z,91.90
2018-09-19T03:21:27.079Z,91.50
2018-09-19T03:23:56.204Z,90.80
2018-09-19T03:26:25.291Z,90.30
2018-09-19T03:28:54.430Z,90.00
2018-09-19T03:31:23.605Z,90.30
2018-09-19T03:33:52.675Z,90.40
2018-09-19T03:36:21.783Z,90.60
2018-09-19T03:38:50.764Z,90.60
2018-09-19T03:41:19.876Z,90.70
2018-09-19T03:43:48.958Z,90.50
2018-09-19T03:46:18.059Z,90.40
2018-09-19T03:48:47.144Z,90.40
2018-09-19T03:51:16.253Z,90.10
2018-09-19T03:53:45.281Z,90.50
2018-09-19T03:56:14.352Z,89.40
2018-09-19T03:58:43.825Z,90.20
2018-09-19T04:01:12.832Z,90.30
2018-09-19T04:03:41.822Z,90.20
2018-09-19T04:06:10.845Z,90.50
2018-09-19T04:08:39.796Z,89.50
2018-09-19T04:11:08.892Z,90.00
2018-09-19T04:13:37.993Z,89.60
2018-09-19T04:16:06.975Z,89.60
2018-09-19T04:18:36.089Z,91.50
2018-09-19T04:21:05.170Z,92.80
2018-09-19T04:23:34.280Z,93.70
2018-09-19T04:26:03.315Z,94.40
2018-09-19T04:28:32.353Z,94.90
2018-09-19T04:31:01.345Z,95.80
2018-09-19T04:33:30.448Z,95.10
2018-09-19T04:35:59.542Z,94.70
2018-09-19T04:38:28.692Z,93.80
2018-09-19T04:40:57.722Z,93.60
2018-09-19T04:43:26.745Z,93.70
2018-09-19T04:45:55.815Z,92.50
2018-09-19T04:48:24.810Z,92.40
2018-09-19T04:50:53.896Z,92.80
2018-09-19T04:53:22.895Z,93.00
2018-09-19T04:55:52.037Z,94.30
2018-09-19T04:58:21.094Z,94.00
2018-09-19T05:00:50.065Z,95.50
2018-09-19T05:03:19.278Z,95.70
2018-09-19T05:05:48.489Z,96.40
2018-09-19T05:08:17.577Z,96.90
2018-09-19T05:10:46.655Z,96.30
2018-09-19T05:13:15.750Z,96.40
2018-09-19T05:15:44.844Z,96.60
2018-09-19T05:18:13.856Z,95.80
2018-09-19T05:20:42.858Z,95.60
2018-09-19T05:23:11.936Z,95.20
2018-09-19T05:25:41.134Z,94.80
2018-09-19T05:28:10.339Z,94.40
2018-09-19T05:30:39.422Z,94.20
2018-09-19T05:33:08.652Z,93.50
2018-09-19T05:35:37.813Z,94.40
2018-09-19T05:38:06.924Z,94.40
2018-09-19T05:40:35.980Z,94.90
2018-09-19T05:43:05.070Z,95.60
2018-09-19T05:45:34.212Z,96.50
2018-09-19T05:48:03.194Z,97.20
2018-09-19T05:50:32.207Z,97.00
2018-09-19T05:53:01.149Z,97.30
2018-09-19T05:55:30.277Z,97.10
2018-09-19T05:57:59.475Z,96.60
2018-09-19T06:00:28.569Z,97.40
2018-09-19T06:02:57.733Z,97.30
2018-09-19T06:05:27.097Z,97.60
2018-09-19T06:07:56.251Z,97.40
2018-09-19T06:10:25.310Z,97.00
2018-09-19T06:12:54.520Z,97.70
2018-09-19T06:15:23.930Z,98.60
2018-09-19T06:17:53.227Z,98.70
2018-09-19T06:20:22.501Z,97.90
2018-09-19T06:22:51.434Z,97.30
2018-09-19T06:25:20.585Z,98.10
2018-09-19T06:27:49.947Z,99.00
2018-09-19T06:30:19.394Z,99.40
2018-09-19T06:32:48.490Z,98.90
2018-09-19T06:35:17.637Z,99.50
2018-09-19T06:37:46.951Z,99.90
2018-09-19T06:40:16.247Z,99.90
2018-09-19T06:42:45.436Z,99.90
2018-09-19T06:45:14.574Z,99.90
2018-09-19T06:47:43.459Z,99.90
2018-09-19T06:50:12.633Z,99.90
2018-09-19T06:52:41.414Z,99.90
2018-09-19T06:55:10.637Z,99.90
2018-09-19T06:57:39.559Z,99.90
2018-09-19T07:00:08.930Z,99.90
2018-09-19T07:02:38.068Z,99.90
2018-09-19T07:05:07.281Z,99.90
2018-09-19T07:07:36.483Z,99.90
2018-09-19T07:10:05.535Z,99.90
2018-09-19T07:12:34.707Z,99.90
2018-09-19T07:15:04.031Z,99.90
2018-09-19T07:17:33.362Z,99.10
2018-09-19T07:20:02.572Z,99.20
2018-09-19T07:22:31.749Z,99.20
2018-09-19T07:25:01.198Z,98.80
2018-09-19T07:27:30.385Z,98.70
2018-09-19T07:29:59.263Z,99.00
2018-09-19T07:32:28.175Z,98.70
2018-09-19T07:34:57.365Z,98.50
2018-09-19T07:37:26.268Z,98.40
2018-09-19T07:39:55.566Z,98.70
2018-09-19T07:42:24.771Z,97.70
2018-09-19T07:44:54.032Z,98.00
2018-09-19T07:47:23.370Z,97.80
2018-09-19T07:49:52.675Z,97.70
2018-09-19T07:52:22.175Z,97.10
2018-09-19T07:54:51.102Z,96.40
2018-09-19T07:57:20.275Z,96.00
2018-09-19T07:59:49.463Z,95.80
2018-09-19T08:02:18.775Z,95.60
2018-09-19T08:04:54.484Z,95.00
2018-09-19T08:07:23.866Z,95.40
2018-09-19T08:09:53.111Z,95.40
2018-09-19T08:12:22.388Z,95.90
2018-09-19T08:14:51.667Z,95.60
2018-09-19T08:17:20.810Z,96.90
2018-09-19T08:19:50.139Z,95.90
2018-09-19T08:22:19.264Z,95.50
2018-09-19T08:24:48.685Z,95.30
2018-09-19T08:27:18.011Z,95.70
2018-09-19T08:29:47.324Z,95.10
2018-09-19T08:32:16.271Z,94.50
2018-09-19T08:34:45.594Z,94.70
2018-09-19T08:37:14.778Z,94.40
2018-09-19T08:39:43.683Z,94.00
2018-09-19T08:42:12.492Z,94.70
2018-09-19T08:44:41.892Z,95.00
2018-09-19T08:47:11.023Z,94.40
2018-09-19T08:49:40.193Z,93.80
2018-09-19T08:52:09.441Z,92.30
2018-09-19T08:54:38.763Z,92.30
2018-09-19T08:57:08.428Z,91.90
2018-09-19T08:59:37.560Z,92.60
2018-09-19T09:02:06.706Z,91.70
2018-09-19T09:04:36.103Z,91.70
2018-09-19T09:07:05.275Z,91.70
2018-09-19T09:09:34.351Z,91.60
2018-09-19T09:12:03.642Z,92.10
2018-09-19T09:14:32.556Z,91.40
2018-09-19T09:17:01.547Z,91.30
2018-09-19T09:19:30.651Z,91.20
2018-09-19T09:21:59.928Z,90.10
2018-09-19T09:24:29.069Z,89.30
2018-09-19T09:26:58.155Z,88.90
2018-09-19T09:29:27.200Z,89.90
2018-09-19T09:31:56.380Z,88.90
2018-09-19T09:34:25.540Z,90.40
2018-09-19T09:36:54.690Z,90.50
2018-09-19T09:39:23.676Z,89.80
2018-09-19T09:41:52.620Z,89.10
2018-09-19T09:44:21.619Z,90.00
2018-09-19T09:46:50.859Z,89.70
2018-09-19T09:49:19.920Z,90.00
2018-09-19T09:51:49.599Z,84.80
2018-09-19T09:54:18.589Z,85.90
2018-09-19T09:56:47.601Z,85.60
2018-09-19T09:59:16.734Z,83.10
2018-09-19T10:01:45.808Z,85.00
2018-09-19T10:04:19.123Z,86.20
2018-09-19T10:06:52.544Z,83.70
2018-09-19T10:09:25.810Z,82.30
2018-09-19T10:12:00.016Z,82.30
2018-09-19T10:14:34.482Z,82.20
2018-09-19T10:17:07.190Z,81.60
2018-09-19T10:19:36.199Z,81.50
2018-09-19T10:22:11.106Z,82.30
2018-09-19T10:24:43.422Z,81.00
2018-09-19T10:27:13.545Z,80.70
2018-09-19T10:29:46.932Z,82.20
2018-09-19T10:32:17.806Z,83.80
2018-09-19T10:34:52.109Z,81.70
2018-09-19T10:37:27.221Z,80.10
2018-09-19T10:39:58.376Z,79.80
2018-09-19T10:42:32.379Z,80.90
2018-09-19T10:45:06.297Z,78.30
2018-09-19T10:47:40.454Z,79.70
2018-09-19T10:50:12.193Z,81.20
2018-09-19T10:52:44.403Z,81.70
2018-09-19T10:55:16.747Z,83.20
2018-09-19T10:57:49.368Z,79.40
2018-09-19T11:00:20.587Z,79.60
2018-09-19T11:02:49.729Z,81.20
2018-09-19T11:05:18.931Z,77.20
2018-09-19T11:07:47.952Z,76.30
2018-09-19T11:10:17.064Z,78.00
2018-09-19T11:12:46.088Z,75.30
2018-09-19T11:15:15.204Z,74.50
2018-09-19T11:17:43.247Z,73.20
2018-09-19T11:20:21.675Z,75.60
2018-09-19T11:22:55.699Z,75.60
2018-09-19T11:25:31.900Z,73.70
2018-09-19T11:28:07.231Z,73.40
2018-09-19T11:30:37.450Z,73.70
2018-09-19T11:33:06.872Z,71.10
2018-09-19T11:35:35.106Z,69.70
2018-09-19T11:38:04.308Z,67.10
2018-09-19T11:40:33.511Z,62.80
2018-09-19T11:43:02.325Z,62.10
2018-09-19T11:45:31.526Z,60.70
2018-09-19T11:48:00.181Z,62.00
2018-09-19T11:50:29.033Z,62.50
2018-09-19T11:52:57.219Z,58.80
2018-09-19T11:55:25.411Z,57.60
2018-09-19T11:57:53.480Z,57.60
2018-09-19T12:00:23.045Z,57.00
2018-09-19T12:02:51.332Z,57.00
2018-09-19T12:05:19.476Z,54.80
2018-09-19T12:07:47.659Z,55.40
2018-09-19T12:10:17.092Z,55.00
2018-09-19T12:12:45.187Z,55.60
2018-09-19T12:15:13.355Z,55.30
2018-09-19T12:17:41.424Z,55.70
2018-09-19T12:20:09.596Z,55.30
2018-09-19T12:22:37.668Z,55.50
2018-09-19T12:25:05.830Z,55.60
2018-09-19T12:27:33.918Z,54.70
2018-09-19T12:30:01.973Z,54.50
2018-09-19T12:32:31.219Z,54.30
2018-09-19T12:35:00.780Z,53.80
2018-09-19T12:37:29.839Z,53.10
2018-09-19T12:39:58.771Z,53.10
2018-09-19T12:42:27.873Z,53.40
2018-09-19T12:44:56.912Z,51.50
2018-09-19T12:47:26.000Z,52.00
2018-09-19T12:49:55.122Z,52.60
2018-09-19T12:52:24.288Z,51.00
2018-09-19T12:54:53.492Z,51.80
2018-09-19T12:57:22.575Z,52.30
2018-09-19T12:59:51.679Z,51.20
2018-09-19T13:02:20.703Z,51.70
2018-09-19T13:04:49.937Z,50.80
2018-09-19T13:07:19.063Z,50.40
2018-09-19T13:09:48.140Z,49.70
2018-09-19T13:12:17.383Z,48.70
2018-09-19T13:14:46.345Z,50.60
2018-09-19T13:17:15.323Z,50.00
2018-09-19T13:19:44.435Z,49.80
2018-09-19T13:22:13.432Z,49.90
2018-09-19T13:24:42.403Z,49.00
2018-09-19T13:27:11.552Z,47.50
2018-09-19T13:29:40.612Z,46.40
2018-09-19T13:32:09.704Z,46.50
2018-09-19T13:34:38.785Z,47.60
2018-09-19T13:37:07.903Z,46.40
2018-09-19T13:39:37.027Z,46.10
2018-09-19T13:42:06.095Z,45.40
2018-09-19T13:44:35.076Z,45.20
2018-09-19T13:47:04.198Z,45.50
2018-09-19T13:49:40.089Z,46.40
2018-09-19T13:52:09.214Z,44.90
2018-09-19T13:54:38.231Z,44.30
2018-09-19T13:57:07.342Z,44.60
2018-09-19T13:59:36.282Z,44.20
2018-09-19T14:02:05.377Z,44.90
2018-09-19T14:06:02.229Z,44.40
2018-09-19T14:08:31.509Z,44.40
2018-09-19T14:11:00.608Z,44.40
2018-09-19T14:13:29.639Z,43.80
2018-09-19T14:15:59.810Z,43.90
2018-09-19T14:18:28.847Z,44.00
2018-09-19T14:20:57.965Z,44.20
2018-09-19T14:23:27.159Z,44.40
2018-09-19T14:25:56.164Z,44.10
2018-09-19T14:28:25.331Z,44.30
2018-09-19T14:30:54.307Z,45.20
2018-09-19T14:33:23.610Z,45.60
2018-09-19T14:35:52.770Z,45.90
2018-09-19T14:38:21.888Z,44.80
2018-09-19T14:40:51.003Z,43.40
2018-09-19T14:43:20.109Z,43.30
2018-09-19T14:45:49.188Z,43.50
2018-09-19T14:48:18.302Z,43.80
2018-09-19T14:50:47.269Z,45.10
2018-09-19T14:53:16.373Z,44.80
2018-09-19T14:55:45.611Z,45.00
2018-09-19T14:58:14.687Z,44.40
2018-09-19T15:00:43.869Z,44.80
2018-09-19T15:03:12.972Z,44.70
2018-09-19T15:05:42.080Z,44.80
2018-09-19T15:08:11.190Z,44.20
2018-09-19T15:10:40.376Z,44.60
2018-09-19T15:13:09.457Z,45.50
2018-09-19T15:15:38.612Z,45.90
2018-09-19T15:18:07.740Z,46.10
2018-09-19T15:20:36.950Z,46.50
2018-09-19T15:23:06.026Z,46.60
2018-09-19T15:25:35.055Z,46.70
2018-09-19T15:28:04.237Z,47.80
2018-09-19T15:30:33.231Z,48.00
2018-09-19T15:33:02.243Z,48.50
2018-09-19T15:35:31.398Z,49.20
2018-09-19T15:38:00.523Z,48.80
2018-09-19T15:40:29.585Z,49.80
2018-09-19T15:42:58.584Z,51.20
2018-09-19T15:45:27.739Z,51.00
2018-09-19T15:47:56.851Z,51.50
2018-09-19T15:50:25.956Z,51.90
2018-09-19T15:52:55.056Z,52.50
2018-09-19T15:55:24.266Z,53.80
2018-09-19T15:57:53.463Z,54.20
2018-09-19T16:00:22.609Z,54.60
2018-09-19T16:02:51.677Z,55.80
2018-09-19T16:05:20.849Z,55.60
2018-09-19T16:07:50.134Z,55.50
2018-09-19T16:10:19.275Z,56.00
2018-09-19T16:12:48.250Z,56.40
2018-09-19T16:15:17.364Z,56.70
2018-09-19T16:17:46.520Z,57.20
2018-09-19T16:20:15.493Z,57.00
2018-09-19T16:22:44.648Z,56.40
2018-09-19T16:25:13.795Z,56.60
2018-09-19T16:27:43.007Z,57.20
2018-09-19T16:30:12.876Z,58.00
2018-09-19T16:32:41.784Z,57.90
2018-09-19T16:35:10.842Z,58.00
2018-09-19T16:37:39.905Z,58.10
2018-09-19T16:40:08.998Z,58.50
2018-09-19T16:42:38.175Z,58.70
2018-09-19T16:45:07.278Z,58.90
2018-09-19T16:47:36.432Z,59.40
2018-09-19T16:50:05.644Z,59.50
2018-09-19T16:52:34.680Z,60.00
2018-09-19T16:55:03.806Z,60.20
2018-09-19T16:57:33.196Z,60.60
2018-09-19T17:00:02.299Z,60.90
2018-09-19T17:02:31.361Z,61.00
2018-09-19T17:05:00.440Z,60.70
2018-09-19T17:07:29.439Z,60.70
2018-09-19T17:09:58.546Z,60.30
2018-09-19T17:12:27.754Z,60.50
2018-09-19T17:14:57.059Z,58.70
2018-09-19T17:17:26.004Z,58.40
2018-09-19T17:19:55.297Z,58.90
2018-09-19T17:22:24.329Z,59.90
2018-09-19T17:24:53.880Z,59.70
2018-09-19T17:27:22.922Z,59.50
2018-09-19T17:29:51.956Z,59.80
2018-09-19T17:32:21.478Z,60.70
2018-09-19T17:34:50.704Z,60.30
2018-09-19T17:37:19.870Z,60.50
2018-09-19T17:39:49.999Z,60.80
2018-09-19T17:42:19.419Z,60.20
2018-09-19T17:44:48.636Z,60.70
2018-09-19T17:47:17.838Z,61.20
2018-09-19T17:49:47.155Z,61.10
2018-09-19T17:52:16.342Z,60.90
2018-09-19T17:54:45.528Z,61.80
2018-09-19T17:57:14.724Z,63.00
2018-09-19T17:59:43.794Z,64.10
2018-09-19T18:02:12.969Z,64.40
2018-09-19T18:04:42.228Z,64.90
2018-09-19T18:07:11.433Z,65.30
2018-09-19T18:09:40.395Z,65.20
2018-09-19T18:12:09.595Z,65.30
2018-09-19T18:14:38.731Z,65.40
2018-09-19T18:17:07.865Z,64.80
2018-09-19T18:19:37.030Z,64.30
2018-09-19T18:22:06.264Z,65.20
2018-09-19T18:24:35.353Z,66.00
2018-09-19T18:27:04.625Z,66.40
2018-09-19T18:29:33.874Z,66.90
2018-09-19T18:32:03.059Z,67.50
2018-09-19T18:34:32.332Z,68.10
2018-09-19T18:37:00.478Z,68.20
2018-09-19T18:39:28.578Z,68.60
2018-09-19T18:41:56.740Z,68.80
2018-09-19T18:44:26.551Z,67.10
2018-09-19T18:46:54.743Z,66.70
2018-09-19T18:49:22.988Z,67.50
2018-09-19T18:51:51.305Z,68.50
2018-09-19T18:54:21.608Z,69.10
2018-09-19T18:56:50.098Z,68.60
2018-09-19T18:59:18.214Z,67.30
2018-09-19T19:01:46.487Z,65.60
2018-09-19T19:04:14.911Z,64.60
2018-09-19T19:06:43.496Z,63.40
2018-09-19T19:09:12.508Z,65.90
2018-09-19T19:11:40.663Z,66.00
2018-09-19T19:14:08.731Z,66.30
2018-09-19T19:16:37.003Z,66.50
2018-09-19T19:19:05.349Z,67.10
2018-09-19T19:21:33.404Z,66.70
2018-09-19T19:24:01.513Z,67.00
2018-09-19T19:26:29.695Z,66.50
2018-09-19T19:28:57.866Z,66.10
2018-09-19T19:31:26.046Z,66.20
2018-09-19T19:33:54.069Z,65.40
2018-09-19T19:36:22.177Z,66.10
2018-09-19T19:38:50.407Z,66.00
2018-09-19T19:41:18.619Z,65.60
2018-09-19T19:43:46.916Z,65.40
2018-09-19T19:46:15.079Z,66.50
2018-09-19T19:48:43.149Z,67.20
2018-09-19T19:51:11.327Z,67.10
2018-09-19T19:53:39.393Z,66.60
2018-09-19T19:56:07.521Z,66.50
2018-09-19T19:58:35.696Z,66.50
2018-09-19T20:01:04.708Z,66.00
2018-09-19T20:03:32.759Z,66.40
2018-09-19T20:06:00.903Z,65.80
2018-09-19T20:08:28.944Z,65.60
2018-09-19T20:10:57.192Z,65.80
2018-09-19T20:13:25.393Z,66.20
2018-09-19T20:15:53.472Z,67.50
2018-09-19T20:18:21.557Z,67.50
2018-09-19T20:20:49.692Z,67.70
2018-09-19T20:23:17.814Z,67.40
2018-09-19T20:25:45.952Z,68.00
2018-09-19T20:28:14.004Z,67.30
2018-09-19T20:30:42.205Z,68.20
2018-09-19T20:33:10.469Z,68.60
2018-09-19T20:35:38.501Z,69.30
2018-09-19T20:38:06.580Z,69.90
2018-09-19T20:40:34.663Z,69.90
2018-09-19T20:43:02.848Z,70.50
2018-09-19T20:45:30.976Z,69.80
2018-09-19T20:47:59.164Z,69.50
2018-09-19T20:50:27.274Z,71.60
2018-09-19T20:52:55.725Z,72.40
2018-09-19T20:55:24.073Z,73.40
2018-09-19T20:57:52.090Z,73.30
2018-09-19T21:00:20.274Z,73.40
2018-09-19T21:02:48.346Z,73.10
2018-09-19T21:05:16.517Z,72.30
2018-09-19T21:07:44.573Z,72.80
2018-09-19T21:10:12.761Z,72.80
2018-09-19T21:12:40.833Z,73.70
2018-09-19T21:15:08.907Z,73.30
2018-09-19T21:17:37.016Z,73.30
2018-09-19T21:20:05.113Z,73.00
2018-09-19T21:22:33.274Z,72.60
2018-09-19T21:25:01.494Z,72.80
2018-09-19T21:27:29.770Z,72.10
2018-09-19T21:29:57.951Z,72.20
2018-09-19T21:32:26.012Z,71.60
2018-09-19T21:34:54.070Z,71.90
2018-09-19T21:37:23.120Z,72.40
2018-09-19T21:39:51.322Z,71.40
2018-09-19T21:42:19.427Z,72.00
2018-09-19T21:44:47.473Z,71.70
2018-09-19T21:47:15.530Z,71.10
2018-09-19T21:49:44.593Z,71.90
2018-09-19T21:52:12.837Z,72.70
2018-09-19T21:54:41.130Z,73.00
2018-09-19T21:57:09.334Z,72.00
2018-09-19T21:59:37.427Z,73.20
2018-09-19T22:02:05.509Z,73.90
2018-09-19T22:04:33.585Z,73.70
2018-09-19T22:07:01.682Z,73.30
2018-09-19T22:09:29.710Z,72.50
2018-09-19T22:11:57.806Z,72.90
2018-09-19T22:14:27.044Z,72.70
2018-09-19T22:16:56.156Z,72.60
2018-09-19T22:19:24.373Z,73.60
2018-09-19T22:21:53.420Z,72.60
2018-09-19T22:24:22.411Z,72.10
2018-09-19T22:26:51.394Z,72.30
2018-09-19T22:29:19.525Z,71.90
2018-09-19T22:31:48.576Z,73.00
2018-09-19T22:34:17.552Z,73.00
2018-09-19T22:36:46.507Z,73.00
2018-09-19T22:39:15.649Z,73.00
2018-09-19T22:41:44.645Z,73.00
2018-09-19T22:44:13.932Z,73.80
2018-09-19T22:46:42.915Z,73.80
2018-09-19T22:49:11.896Z,74.60
2018-09-19T22:51:41.011Z,74.50
2018-09-19T22:54:10.053Z,74.20
2018-09-19T22:56:39.089Z,74.00
2018-09-19T22:59:08.293Z,74.70
2018-09-19T23:01:37.199Z,74.90
2018-09-19T23:04:06.476Z,75.10
2018-09-19T23:06:35.465Z,76.30
2018-09-19T23:09:05.361Z,76.20
2018-09-19T23:11:34.380Z,75.80
2018-09-19T23:14:03.444Z,77.30
2018-09-19T23:16:32.592Z,77.10
2018-09-19T23:19:01.573Z,76.90
2018-09-19T23:21:30.565Z,76.10
2018-09-19T23:23:59.543Z,75.70
2018-09-19T23:26:28.538Z,75.50
2018-09-19T23:28:57.543Z,75.20
2018-09-19T23:31:26.537Z,74.70
2018-09-19T23:33:55.539Z,74.50
2018-09-19T23:36:24.511Z,75.00
2018-09-19T23:38:53.608Z,75.30
2018-09-19T23:41:22.608Z,75.30
2018-09-19T23:43:51.568Z,76.30
2018-09-19T23:46:20.721Z,77.10
2018-09-19T23:48:49.764Z,78.10
2018-09-19T23:51:18.773Z,78.50
2018-09-19T23:53:47.879Z,77.60
2018-09-19T23:56:16.965Z,78.30
2018-09-19T23:58:46.072Z,77.70
